Glory Ocean — 9VDE7 — position and weather

sailwx.info

Track history (hours):
 
Tides and Currents Weather Stations Pressure Air Temp Water Temp Dewpoint Dewpoint Depression Visibility Wind Speed Wind Dir Waves Ship Positions

Glory Ocean

Last reported at 2015-Feb-06 09:06 UTC. Time now 2015-Feb-28 19:23 UTC.
Position N 35°58' W 005°34'.
Warning: this ship's position is 22 days out of date.

Length 139 m; draft 9.1 m.

Type: Cargo ship. MMSI: 564700000.

Date/timePositionNaut miles runAvg speedWind from/ knotsBaromVisibWave heightAir tempDewpointWater temp
2015-Feb-06 09:06N 35°58' W 005°34'4 7.8
2015-Feb-06 08:33N 35°59' W 005°29'8 7.6
2015-Feb-06 07:33N 36°01' W 005°20'21210.0
2015-Feb-05 10:24N 37°09' W 001°10'1011.9
2015-Feb-05 09:33N 37°15' W 000°60'1211.9
2015-Feb-05 08:33N 37°23' W 000°49'1211.9
2015-Feb-05 07:33N 37°31' W 000°38'1211.5
2015-Feb-05 06:33N 37°40' W 000°29'1111.6
2015-Feb-05 05:33N 37°50' W 000°20'1211.8
2015-Feb-05 04:33N 37°60' W 000°12'13511.1
2015-Feb-04 16:20N 40°03' E 000°58'911.0
2015-Feb-04 15:33N 40°12' E 000°55'1311.1
2015-Feb-04 14:25N 40°24' E 000°50'9 0.2
2015-Feb-02 11:27N 40°15' E 000°53'1011.6
2015-Feb-02 10:33N 40°05' E 000°58'13411.1
2015-Feb-01 22:33N 38°01' W 000°07'1111.2
2015-Feb-01 21:34N 37°52' W 000°15'1111.3
2015-Feb-01 20:33N 37°43' W 000°23'1111.0
2015-Feb-01 19:33N 37°33' W 000°31'1110.7
2015-Feb-01 18:33N 37°26' W 000°40'1111.0
2015-Feb-01 17:33N 37°19' W 000°51'1211.6
2015-Feb-01 16:33N 37°11' W 001°01'21211.5
2015-Jan-31 22:06N 36°00' W 005°11'814.7
2015-Jan-31 21:33N 35°59' W 005°21'  
Track history (hours):
 
Tides and Currents Weather Stations Pressure Air Temp Water Temp Dewpoint Dewpoint Depression Visibility Wind Speed Wind Dir Waves Ship Positions

Glory Ocean

Last reported at 2015-Feb-06 09:06 UTC. Time now 2015-Feb-28 19:23 UTC.
Position N 35°58' W 005°34'.
Warning: this ship's position is 22 days out of date.

Length 139 m; draft 9.1 m.

Type: Cargo ship. MMSI: 564700000.

Date/timePositionNaut miles runAvg speedWind from/ knotsBaromVisibWave heightAir tempDewpointWater temp
2015-Feb-06 09:06N 35°58' W 005°34'4 7.8
2015-Feb-06 08:33N 35°59' W 005°29'8 7.6
2015-Feb-06 07:33N 36°01' W 005°20'21210.0
2015-Feb-05 10:24N 37°09' W 001°10'1011.9
2015-Feb-05 09:33N 37°15' W 000°60'1211.9
2015-Feb-05 08:33N 37°23' W 000°49'1211.9
2015-Feb-05 07:33N 37°31' W 000°38'1211.5
2015-Feb-05 06:33N 37°40' W 000°29'1111.6
2015-Feb-05 05:33N 37°50' W 000°20'1211.8
2015-Feb-05 04:33N 37°60' W 000°12'13511.1
2015-Feb-04 16:20N 40°03' E 000°58'911.0
2015-Feb-04 15:33N 40°12' E 000°55'1311.1
2015-Feb-04 14:25N 40°24' E 000°50'9 0.2
2015-Feb-02 11:27N 40°15' E 000°53'1011.6
2015-Feb-02 10:33N 40°05' E 000°58'13411.1
2015-Feb-01 22:33N 38°01' W 000°07'1111.2
2015-Feb-01 21:34N 37°52' W 000°15'1111.3
2015-Feb-01 20:33N 37°43' W 000°23'1111.0
2015-Feb-01 19:33N 37°33' W 000°31'1110.7
2015-Feb-01 18:33N 37°26' W 000°40'1111.0
2015-Feb-01 17:33N 37°19' W 000°51'1211.6
2015-Feb-01 16:33N 37°11' W 001°01'21211.5
2015-Jan-31 22:06N 36°00' W 005°11'814.7
2015-Jan-31 21:33N 35°59' W 005°21'  

Dump ship's entire track history